Forside
METAR-TAF:

METAR-TAF

Lufthavne :

Danville, Kentucky, USA

Breddekreds: 37-34-40N, længdekreds: 084-46-11W, højde: 312 m

Aktuelle vejr

Denne rapport blev lavet for 35 minutter siden, kl. 20:50 UTC
Vind 7 kt fra sydvest
Temperatur 6°C
Fugtighed 65%
Tryk 1015 hPa
Sigt: 16.1 km
Spredte skyer i en højde af 5000 ft
Overskyet i en højde af 6500 ft

METAR: KDVK 262050Z AUTO 22007KT 10SM SCT050 OVC065 06/00 A2998 RMK AO2

Tid: 16:25 (21:25 UTC)


TAF: fraværende

Vejrobservationer og prognoser fra mere end 4000 lufthavne (METAR og TAF).

De gule og røde prikker repræsenterer de meteorologiske stationer.

Flyt musen over at se navnet på stationen.

Så klik over at se vejr observationer og prognoser.

At skifte det kort: Klik på de grønne knapper med et sort kors for at zoome ind; på den grønne knap med en bindestreg for at zoome ud; eller på de grønne pile for tilstødende kort.


METAR-TAF: